Impacts TAF Board INFO
FOR SITUATIONAL AWARENESS. NOT TO BE USED FOR FLIGHT PLANNING PURPOSES.
IDs:

KLGA - New York/La Guardia, NY, US

Issued at 0233 UTC 22 Apr 2018
Updated at 0446 UTC 22 Apr 2018
Potential Impact None Slight Moderate High
Time0351Z 22/05Z 22/06Z 22/07Z 22/08Z 22/09Z 22/10Z 22/11Z 22/12Z 22/13Z 22/14Z 22/15Z 22/16Z 22/17Z>>
Type OBS PRVL PRVL PRVL PRVL PRVL PRVL PRVL PRVL PRVL PRVL PRVL PRVL PRVL
VIS 10 >6 >6 >6 >6 >6 >6 >6 >6 >6 >6 >6 >6 >6
CIG -- -- -- -- -- -- -- -- -- -- -- -- -- --
Cover SCT SCT SKC SKC SKC SKC SKC SKC SKC SKC FEW FEW FEW FEW
FltCat VFR VFR VFR VFR VFR VFR VFR VFR VFR VFR VFR VFR VFR VFR
WX -- -- -- -- -- -- -- -- -- -- -- -- -- --
WDir 340 320 330 330 330 330 330 330 330 330 330 330 330 330
WSpd 11 8 6 6 6 6 6 6 6 6 8 8 8 8
WGst 18 -- -- -- -- -- -- -- -- -- -- -- -- --

Raw TAF
KLGA 220233Z 2203/2306 32008KT P6SM SCT250
  FM220600 33006KT P6SM SKC
  FM221400 33008KT P6SM FEW060
  FM222000 18010KT P6SM FEW060
  FM230000 18007KT P6SM FEW060
  FM230200 VRB04KT P6SM SKC


Raw METAR
KLGA 220351Z 34011G18KT 10SM SCT250 12/M06 A3034 RMK AO2 SLP274 T01221061
KLGA 220251Z 32008KT 10SM SCT250 13/M05 A3033 RMK AO2 SLP271 T01281050 51017
KLGA 220151Z 32013KT 10SM SCT250 13/M05 A3032 RMK AO2 SLP267 T01331050

METAR Board
Radar Display
Forecast Discussion

FOR SITUATIONAL AWARENESS. NOT TO BE USED FOR FLIGHT PLANNING PURPOSES.